Terminal Aerodrome Forecast
Issued by NWS Atlanta, GA

Home | Current Version | Previous Version | Text Only | Print | Product List | Glossary On
Versions: 1 2 3 4 5 6 7 8 9 10 11 12 13 14 15 16 17 18 19 20 21 22 23 24 25 26 27 28 29 30 31 32 33 34 35 36 37
000
FTUS42 KFFC 250747 AAA
TAFATL
TAF AMD
KATL 250747Z 2508/2612 14009KT P6SM SCT060
     FM251000 14009KT P6SM BKN035
      TEMPO 2511/2514 BKN015
     FM251400 16011KT P6SM BKN025
     FM251800 16010KT P6SM BKN040
     FM252300 14007KT P6SM VCSH BKN035
     FM260300 14009KT 6SM -SHRA BKN025 PROB30 2603/2609 4SM TSRA
      BKN025CB=

USA.gov is the U.S. government's official web portal to all federal, state and local government web resources and services.